createdAt,value
2018-07-17T00:01:52.936Z,90.40
2018-07-17T00:04:21.302Z,90.70
2018-07-17T00:06:49.794Z,90.80
2018-07-17T00:09:18.367Z,90.80
2018-07-17T00:11:46.823Z,91.00
2018-07-17T00:14:16.762Z,91.50
2018-07-17T00:16:45.350Z,91.40
2018-07-17T00:19:13.857Z,91.40
2018-07-17T00:21:42.266Z,91.30
2018-07-17T00:24:10.726Z,91.50
2018-07-17T00:26:39.529Z,91.80
2018-07-17T00:29:07.895Z,91.90
2018-07-17T00:31:36.439Z,91.90
2018-07-17T00:34:04.920Z,92.20
2018-07-17T00:36:33.365Z,92.10
2018-07-17T00:39:02.084Z,92.00
2018-07-17T00:41:30.549Z,92.30
2018-07-17T00:43:58.899Z,92.50
2018-07-17T00:46:27.194Z,92.50
2018-07-17T00:48:55.508Z,92.70
2018-07-17T00:51:23.858Z,93.00
2018-07-17T00:53:52.177Z,93.30
2018-07-17T00:56:20.629Z,93.40
2018-07-17T00:58:48.965Z,93.60
2018-07-17T01:01:22.583Z,93.70
2018-07-17T01:03:56.341Z,93.90
2018-07-17T01:06:30.190Z,93.40
2018-07-17T01:09:03.765Z,93.60
2018-07-17T01:11:37.410Z,93.70
2018-07-17T01:14:11.088Z,93.80
2018-07-17T01:16:39.451Z,93.70
2018-07-17T01:19:07.802Z,93.80
2018-07-17T01:21:36.191Z,93.90
2018-07-17T01:24:04.513Z,94.40
2018-07-17T01:26:32.941Z,94.50
2018-07-17T01:29:01.264Z,94.70
2018-07-17T01:31:29.750Z,95.00
2018-07-17T01:33:58.140Z,95.10
2018-07-17T01:36:26.450Z,95.30
2018-07-17T01:38:54.781Z,95.30
2018-07-17T01:41:23.100Z,95.60
2018-07-17T01:43:51.420Z,96.00
2018-07-17T01:46:19.716Z,95.80
2018-07-17T01:48:48.064Z,95.60
2018-07-17T01:51:16.576Z,95.20
2018-07-17T01:53:44.989Z,95.80
2018-07-17T01:56:13.323Z,96.10
2018-07-17T01:58:41.630Z,96.40
2018-07-17T02:01:09.936Z,96.50
2018-07-17T02:03:38.296Z,96.80
2018-07-17T02:06:06.641Z,96.90
2018-07-17T02:08:34.937Z,97.10
2018-07-17T02:11:03.273Z,97.30
2018-07-17T02:13:31.592Z,97.50
2018-07-17T02:15:59.931Z,97.20
2018-07-17T02:18:28.262Z,97.10
2018-07-17T02:20:56.652Z,97.00
2018-07-17T02:23:25.011Z,96.80
2018-07-17T02:25:53.326Z,96.20
2018-07-17T02:28:21.671Z,96.10
2018-07-17T02:30:50.016Z,95.70
2018-07-17T02:33:18.518Z,95.20
2018-07-17T02:35:46.855Z,95.00
2018-07-17T02:38:15.198Z,94.80
2018-07-17T02:40:43.533Z,95.10
2018-07-17T02:43:11.869Z,95.90
2018-07-17T02:45:40.219Z,96.30
2018-07-17T02:48:08.613Z,96.00
2018-07-17T02:50:36.971Z,96.00
2018-07-17T02:53:05.315Z,95.70
2018-07-17T02:55:33.605Z,95.90
2018-07-17T02:58:01.921Z,95.70
2018-07-17T03:00:30.225Z,95.80
2018-07-17T03:02:58.532Z,96.00
2018-07-17T03:05:26.975Z,96.00
2018-07-17T03:07:55.314Z,95.80
2018-07-17T03:10:23.625Z,96.00
2018-07-17T03:12:52.071Z,96.00
2018-07-17T03:15:20.428Z,96.20
2018-07-17T03:17:48.933Z,96.30
2018-07-17T03:20:17.317Z,96.80
2018-07-17T03:22:47.779Z,96.80
2018-07-17T03:25:16.197Z,97.10
2018-07-17T03:27:45.078Z,97.30
2018-07-17T03:30:13.411Z,97.20
2018-07-17T03:32:41.773Z,96.90
2018-07-17T03:35:10.103Z,96.20
2018-07-17T03:37:38.426Z,95.90
2018-07-17T03:40:06.841Z,95.60
2018-07-17T03:42:35.157Z,95.50
2018-07-17T03:45:03.498Z,95.10
2018-07-17T03:47:31.875Z,95.10
2018-07-17T03:50:00.224Z,94.70
2018-07-17T03:52:28.602Z,94.90
2018-07-17T03:54:56.998Z,95.00
2018-07-17T03:57:25.319Z,94.80
2018-07-17T03:59:53.645Z,94.70
2018-07-17T04:02:21.967Z,94.90
2018-07-17T04:04:50.269Z,95.20
2018-07-17T04:07:18.589Z,95.40
2018-07-17T04:09:46.934Z,95.70
2018-07-17T04:12:15.261Z,96.10
2018-07-17T04:14:43.989Z,96.10
2018-07-17T04:17:12.425Z,96.50
2018-07-17T04:19:42.086Z,96.60
2018-07-17T04:22:10.490Z,96.90
2018-07-17T04:24:38.843Z,97.00
2018-07-17T04:27:07.204Z,97.00
2018-07-17T04:29:35.574Z,96.70
2018-07-17T04:32:04.030Z,96.60
2018-07-17T04:34:32.370Z,96.40
2018-07-17T04:37:00.997Z,96.40
2018-07-17T04:39:29.314Z,96.30
2018-07-17T04:41:57.729Z,96.10
2018-07-17T04:44:26.112Z,96.00
2018-07-17T04:46:54.442Z,96.00
2018-07-17T04:49:23.141Z,95.30
2018-07-17T04:51:51.577Z,95.20
2018-07-17T04:54:19.956Z,95.10
2018-07-17T04:56:48.259Z,95.10
2018-07-17T04:59:16.570Z,95.10
2018-07-17T05:01:45.003Z,94.90
2018-07-17T05:04:13.407Z,95.10
2018-07-17T05:06:47.622Z,94.90
2018-07-17T05:09:15.968Z,95.00
2018-07-17T05:11:44.282Z,94.60
2018-07-17T05:14:12.592Z,94.60
2018-07-17T05:16:41.036Z,94.20
2018-07-17T05:19:09.375Z,94.20
2018-07-17T05:21:39.906Z,94.30
2018-07-17T05:24:08.265Z,94.30
2018-07-17T05:26:39.635Z,94.20
2018-07-17T05:29:07.962Z,94.20
2018-07-17T05:31:40.120Z,94.10
2018-07-17T05:34:08.442Z,94.00
2018-07-17T05:36:37.576Z,93.40
2018-07-17T05:39:07.571Z,93.00
2018-07-17T05:41:36.876Z,93.00
2018-07-17T05:44:05.301Z,92.80
2018-07-17T05:46:33.758Z,92.60
2018-07-17T05:49:02.273Z,92.60
2018-07-17T05:51:30.703Z,92.70
2018-07-17T05:53:59.046Z,92.60
2018-07-17T05:56:27.391Z,92.80
2018-07-17T05:58:55.865Z,92.70
2018-07-17T06:01:24.451Z,92.90
2018-07-17T06:03:52.793Z,92.80
2018-07-17T06:06:21.535Z,92.60
2018-07-17T06:08:50.702Z,92.50
2018-07-17T06:11:19.204Z,92.40
2018-07-17T06:13:48.835Z,92.30
2018-07-17T06:16:17.277Z,92.30
2018-07-17T06:18:45.643Z,92.30
2018-07-17T06:21:13.981Z,92.40
2018-07-17T06:23:42.408Z,92.10
2018-07-17T06:26:10.984Z,91.80
2018-07-17T06:28:39.303Z,91.70
2018-07-17T06:31:07.638Z,91.60
2018-07-17T06:33:36.032Z,91.70
2018-07-17T06:36:04.430Z,91.50
2018-07-17T06:38:32.857Z,91.10
2018-07-17T06:41:01.296Z,91.10
2018-07-17T06:43:30.201Z,91.10
2018-07-17T06:45:59.160Z,90.70
2018-07-17T06:48:27.725Z,89.90
2018-07-17T06:50:56.123Z,88.80
2018-07-17T06:53:24.485Z,87.90
2018-07-17T06:55:52.883Z,87.00
2018-07-17T06:58:21.356Z,86.20
2018-07-17T07:00:49.822Z,85.90
2018-07-17T07:03:18.231Z,86.50
2018-07-17T07:05:46.689Z,86.50
2018-07-17T07:08:15.006Z,86.80
2018-07-17T07:10:43.361Z,86.40
2018-07-17T07:13:12.144Z,87.00
2018-07-17T07:15:40.508Z,87.10
2018-07-17T07:18:09.765Z,86.60
2018-07-17T07:20:38.241Z,86.60
2018-07-17T07:23:06.973Z,86.50
2018-07-17T07:25:35.522Z,86.50
2018-07-17T07:28:03.934Z,84.80
2018-07-17T07:30:32.347Z,84.60
2018-07-17T07:33:00.837Z,83.30
2018-07-17T07:35:29.255Z,82.10
2018-07-17T07:37:57.625Z,81.10
2018-07-17T07:40:26.011Z,81.20
2018-07-17T07:42:54.457Z,82.40
2018-07-17T07:45:22.687Z,80.30
2018-07-17T07:47:52.888Z,81.30
2018-07-17T07:50:21.267Z,80.00
2018-07-17T07:52:50.130Z,80.60
2018-07-17T07:55:18.599Z,79.10
2018-07-17T07:57:47.401Z,79.30
2018-07-17T08:00:15.838Z,77.40
2018-07-17T08:02:44.454Z,76.90
2018-07-17T08:05:13.032Z,76.10
2018-07-17T08:07:41.557Z,74.80
2018-07-17T08:10:10.713Z,75.20
2018-07-17T08:12:39.320Z,75.20
2018-07-17T08:15:08.026Z,76.70
2018-07-17T08:17:38.248Z,77.50
2018-07-17T08:20:06.764Z,77.60
2018-07-17T08:22:35.410Z,78.50
2018-07-17T08:25:04.104Z,78.30
2018-07-17T08:27:32.792Z,78.80
2018-07-17T08:30:01.167Z,77.40
2018-07-17T08:32:29.525Z,77.50
2018-07-17T08:34:57.989Z,77.00
2018-07-17T08:37:26.394Z,76.80
2018-07-17T08:39:54.690Z,77.60
2018-07-17T08:42:23.035Z,77.70
2018-07-17T08:44:51.422Z,77.50
2018-07-17T08:47:19.765Z,78.10
2018-07-17T08:49:48.096Z,76.30
2018-07-17T08:52:16.424Z,76.10
2018-07-17T08:54:44.753Z,75.30
2018-07-17T08:57:13.098Z,76.90
2018-07-17T08:59:41.657Z,75.80
2018-07-17T09:02:10.142Z,76.00
2018-07-17T09:04:38.563Z,73.60
2018-07-17T09:07:06.885Z,74.30
2018-07-17T09:09:35.192Z,75.60
2018-07-17T09:12:03.610Z,73.70
2018-07-17T09:14:31.963Z,72.60
2018-07-17T09:17:00.300Z,72.90
2018-07-17T09:19:28.621Z,71.90
2018-07-17T09:21:57.100Z,71.20
2018-07-17T09:24:25.478Z,72.00
2018-07-17T09:26:54.297Z,71.80
2018-07-17T09:29:22.651Z,71.80
2018-07-17T09:34:19.032Z,68.20
2018-07-17T09:36:47.758Z,67.40
2018-07-17T09:39:16.102Z,68.70
2018-07-17T09:41:44.404Z,69.20
2018-07-17T09:44:12.742Z,67.80
2018-07-17T09:46:41.169Z,68.50
2018-07-17T09:49:11.082Z,67.10
2018-07-17T09:51:39.516Z,66.90
2018-07-17T09:54:07.993Z,66.00
2018-07-17T09:56:36.493Z,66.40
2018-07-17T09:59:04.905Z,66.50
2018-07-17T10:01:38.702Z,65.50
2018-07-17T10:04:07.055Z,65.80
2018-07-17T10:06:35.980Z,64.40
2018-07-17T10:09:05.526Z,64.50
2018-07-17T10:11:33.918Z,64.20
2018-07-17T10:14:04.498Z,60.90
2018-07-17T10:16:33.226Z,59.00
2018-07-17T10:19:01.796Z,58.40
2018-07-17T10:21:30.293Z,60.20
2018-07-17T10:23:58.745Z,59.90
2018-07-17T10:26:27.360Z,58.80
2018-07-17T10:28:55.585Z,59.20
2018-07-17T10:31:25.041Z,59.50
2018-07-17T10:33:53.401Z,60.40
2018-07-17T10:36:21.745Z,58.80
2018-07-17T10:38:50.077Z,59.20
2018-07-17T10:41:18.505Z,59.60
2018-07-17T10:43:46.858Z,59.30
2018-07-17T10:46:15.897Z,58.30
2018-07-17T10:48:44.234Z,57.80
2018-07-17T10:51:12.589Z,57.80
2018-07-17T10:53:40.977Z,57.90
2018-07-17T10:56:09.633Z,58.00
2018-07-17T10:58:38.052Z,57.20
2018-07-17T11:01:07.084Z,57.80
2018-07-17T11:03:35.880Z,55.90
2018-07-17T11:06:04.254Z,53.50
2018-07-17T11:08:32.804Z,51.80
2018-07-17T11:11:01.631Z,52.10
2018-07-17T11:13:30.181Z,50.70
2018-07-17T11:15:58.631Z,51.10
2018-07-17T11:18:27.102Z,51.00
2018-07-17T11:20:56.247Z,51.30
2018-07-17T11:23:24.708Z,52.30
2018-07-17T11:25:55.954Z,52.50
2018-07-17T11:28:24.682Z,52.70
2018-07-17T11:30:54.932Z,52.30
2018-07-17T11:33:23.841Z,52.40
2018-07-17T11:35:55.006Z,51.80
2018-07-17T11:38:24.466Z,50.00
2018-07-17T11:41:02.801Z,50.30
2018-07-17T11:43:41.630Z,49.50
2018-07-17T11:46:20.173Z,48.00
2018-07-17T11:48:56.727Z,49.00
2018-07-17T11:51:30.309Z,49.00
2018-07-17T11:54:05.990Z,48.50
2018-07-17T11:56:41.987Z,47.00
2018-07-17T11:59:16.848Z,48.20
2018-07-17T12:01:54.532Z,47.60
2018-07-17T12:04:27.927Z,48.40
2018-07-17T12:07:01.108Z,48.50
2018-07-17T12:09:38.302Z,48.50
2018-07-17T12:12:18.852Z,46.90
2018-07-17T12:14:59.310Z,48.00
2018-07-17T12:17:32.624Z,46.80
2018-07-17T12:20:06.457Z,46.20
2018-07-17T12:22:47.266Z,45.90
2018-07-17T12:25:20.836Z,45.90
2018-07-17T12:27:52.680Z,45.20
2018-07-17T12:30:24.038Z,44.80
2018-07-17T12:32:55.835Z,46.00
2018-07-17T12:35:35.407Z,47.20
2018-07-17T12:38:12.136Z,46.30
2018-07-17T12:40:49.062Z,46.00
2018-07-17T12:43:20.718Z,46.00
2018-07-17T12:45:56.462Z,46.40
2018-07-17T12:48:29.068Z,46.50
2018-07-17T12:51:00.398Z,45.80
2018-07-17T12:53:39.485Z,46.60
2018-07-17T12:56:18.426Z,47.10
2018-07-17T12:58:51.116Z,47.40
2018-07-17T13:01:21.126Z,47.10
2018-07-17T13:03:51.660Z,47.00
2018-07-17T13:06:24.871Z,46.60
2018-07-17T13:09:02.569Z,47.20
2018-07-17T13:11:35.518Z,47.70
2018-07-17T13:14:06.082Z,47.00
2018-07-17T13:16:39.341Z,46.20
2018-07-17T13:19:15.809Z,45.40
2018-07-17T13:21:51.151Z,46.50
2018-07-17T13:24:22.306Z,46.20
2018-07-17T13:27:24.085Z,45.80
2018-07-17T13:29:55.519Z,46.90
2018-07-17T13:32:29.468Z,47.70
2018-07-17T13:35:00.550Z,47.90
2018-07-17T13:37:32.426Z,45.90
2018-07-17T13:40:05.718Z,45.60
2018-07-17T13:42:35.630Z,46.10
2018-07-17T13:45:08.791Z,46.90
2018-07-17T13:47:39.550Z,47.50
2018-07-17T13:50:10.413Z,47.30
2018-07-17T13:52:38.963Z,47.00
2018-07-17T13:55:07.310Z,46.30
2018-07-17T13:57:36.548Z,45.50
2018-07-17T14:00:06.011Z,45.40
2018-07-17T14:02:34.245Z,45.40
2018-07-17T14:05:02.557Z,45.20
2018-07-17T14:07:31.097Z,44.60
2018-07-17T14:09:59.484Z,44.00
2018-07-17T14:12:28.076Z,45.40
2018-07-17T14:14:56.314Z,44.70
2018-07-17T14:17:24.684Z,45.00
2018-07-17T14:19:53.058Z,44.20
2018-07-17T14:22:21.447Z,45.00
2018-07-17T14:24:49.780Z,45.30
2018-07-17T14:27:18.103Z,45.50
2018-07-17T14:29:46.437Z,45.80
2018-07-17T14:32:14.837Z,45.30
2018-07-17T14:34:43.294Z,46.10
2018-07-17T14:37:11.687Z,46.30
2018-07-17T14:39:40.137Z,46.30
2018-07-17T14:42:08.525Z,46.00
2018-07-17T14:44:36.865Z,45.60
2018-07-17T14:47:05.305Z,44.20
2018-07-17T14:49:34.284Z,44.60
2018-07-17T14:52:02.659Z,44.70
2018-07-17T14:54:31.130Z,44.40
2018-07-17T14:56:59.857Z,44.20
2018-07-17T14:59:28.276Z,43.60
2018-07-17T15:01:56.791Z,44.90
2018-07-17T15:04:25.236Z,43.90
2018-07-17T15:06:54.037Z,44.10
2018-07-17T15:09:22.507Z,43.90
2018-07-17T15:14:18.989Z,44.80
2018-07-17T15:16:47.470Z,44.30
2018-07-17T15:19:15.916Z,44.40
2018-07-17T15:21:44.410Z,44.40
2018-07-17T15:24:12.935Z,45.00
2018-07-17T15:26:41.400Z,45.40
2018-07-17T15:29:09.887Z,45.80
2018-07-17T15:31:38.581Z,45.10
2018-07-17T15:34:06.985Z,45.90
2018-07-17T15:36:35.593Z,45.90
2018-07-17T15:39:05.626Z,44.40
2018-07-17T15:41:34.266Z,42.70
2018-07-17T15:44:02.709Z,42.70
2018-07-17T15:46:31.308Z,42.50
2018-07-17T15:49:00.113Z,40.70
2018-07-17T15:51:28.542Z,39.00
2018-07-17T15:53:56.905Z,38.60
2018-07-17T15:56:25.381Z,37.10
2018-07-17T15:58:54.108Z,36.80
2018-07-17T16:01:22.657Z,37.40
2018-07-17T16:03:51.101Z,38.00
2018-07-17T16:06:19.583Z,38.90
2018-07-17T16:08:47.946Z,39.50
2018-07-17T16:11:16.497Z,40.50
2018-07-17T16:13:45.197Z,41.00
2018-07-17T16:16:13.519Z,43.00
2018-07-17T16:18:42.009Z,43.60
2018-07-17T16:21:10.625Z,44.70
2018-07-17T16:23:39.079Z,45.00
2018-07-17T16:26:07.493Z,44.70
2018-07-17T16:28:36.135Z,45.20
2018-07-17T16:31:05.297Z,46.30
2018-07-17T16:33:33.893Z,47.20
2018-07-17T16:36:02.222Z,46.80
2018-07-17T16:38:33.324Z,47.00
2018-07-17T16:41:01.709Z,47.60
2018-07-17T16:43:30.057Z,48.60
2018-07-17T16:45:58.377Z,50.40
2018-07-17T16:48:26.766Z,51.50
2018-07-17T16:50:55.110Z,52.60
2018-07-17T16:53:23.537Z,53.00
2018-07-17T16:55:51.869Z,53.30
2018-07-17T16:58:20.193Z,53.60
2018-07-17T17:00:48.673Z,54.20
2018-07-17T17:03:17.013Z,54.90
2018-07-17T17:05:45.370Z,57.60
2018-07-17T17:08:13.687Z,66.80
2018-07-17T17:10:42.019Z,66.80
2018-07-17T17:13:10.342Z,67.30
2018-07-17T17:15:38.661Z,66.00
2018-07-17T17:18:06.975Z,72.60
2018-07-17T17:20:35.301Z,65.00
2018-07-17T17:23:03.934Z,69.40
2018-07-17T17:25:32.247Z,69.40
2018-07-17T17:28:00.558Z,67.90
2018-07-17T17:30:28.941Z,64.80
2018-07-17T17:32:57.360Z,63.00
2018-07-17T17:35:25.673Z,64.70
2018-07-17T17:37:54.055Z,67.00
2018-07-17T17:40:22.367Z,67.30
2018-07-17T17:42:50.677Z,67.80
2018-07-17T17:45:19.147Z,71.20
2018-07-17T17:47:47.421Z,74.30
2018-07-17T17:50:15.765Z,82.00
2018-07-17T17:52:44.074Z,90.30
2018-07-17T17:55:12.421Z,94.30
2018-07-17T17:57:40.773Z,99.90
2018-07-17T18:00:09.125Z,99.90
2018-07-17T18:02:37.465Z,99.90
2018-07-17T18:05:05.862Z,99.90
2018-07-17T18:07:34.134Z,99.90
2018-07-17T18:10:02.694Z,99.90
2018-07-17T18:12:31.069Z,99.90
2018-07-17T18:14:59.411Z,99.90
2018-07-17T18:17:27.769Z,99.90
2018-07-17T18:19:56.107Z,99.90
2018-07-17T18:22:24.549Z,99.90
2018-07-17T18:24:52.896Z,99.90
2018-07-17T18:27:21.364Z,99.90
2018-07-17T18:29:49.793Z,99.90
2018-07-17T18:32:18.234Z,99.90
2018-07-17T18:34:46.513Z,99.90
2018-07-17T18:37:14.847Z,99.90
2018-07-17T18:39:43.539Z,99.90
2018-07-17T18:42:12.076Z,99.90
2018-07-17T18:44:40.395Z,99.90
2018-07-17T18:47:08.765Z,99.90
2018-07-17T18:49:37.103Z,99.90
2018-07-17T18:52:05.570Z,99.90
2018-07-17T18:54:33.898Z,99.90
2018-07-17T18:57:02.284Z,99.90
2018-07-17T18:59:30.682Z,99.90
2018-07-17T19:04:55.105Z,99.90
2018-07-17T19:16:16.025Z,99.90
2018-07-17T19:19:07.629Z,99.90
2018-07-17T19:21:36.206Z,99.90
2018-07-17T19:24:10.093Z,99.90
2018-07-17T19:26:40.489Z,99.90
2018-07-17T19:29:20.174Z,99.90
2018-07-17T19:40:20.194Z,99.90
2018-07-17T19:42:49.510Z,99.90
2018-07-17T19:45:19.018Z,99.90
2018-07-17T19:47:47.470Z,99.90
2018-07-17T19:50:16.109Z,99.90
2018-07-17T19:52:46.641Z,99.90
2018-07-17T19:58:03.699Z,99.90
2018-07-17T20:00:32.309Z,99.90
2018-07-17T20:03:00.791Z,99.90
2018-07-17T20:05:29.266Z,99.90
2018-07-17T20:07:57.847Z,99.90
2018-07-17T20:10:27.205Z,99.90
2018-07-17T20:13:00.547Z,99.90
2018-07-17T20:18:15.087Z,99.90
2018-07-17T20:20:46.883Z,99.90
2018-07-17T20:23:18.613Z,99.90
2018-07-17T20:25:47.128Z,99.90
2018-07-17T20:28:16.296Z,99.90
2018-07-17T20:30:44.966Z,99.90
2018-07-17T20:33:17.115Z,99.90
2018-07-17T20:35:45.871Z,99.90
2018-07-17T20:38:15.064Z,99.90
2018-07-17T20:40:43.562Z,99.90
2018-07-17T20:43:12.062Z,99.90
2018-07-17T20:45:40.586Z,99.90
2018-07-17T20:48:09.022Z,99.90
2018-07-17T20:50:37.550Z,99.90
2018-07-17T20:53:06.257Z,99.90
2018-07-17T20:55:34.709Z,99.90
2018-07-17T20:58:03.503Z,99.90
2018-07-17T21:00:31.939Z,99.90
2018-07-17T21:03:00.360Z,99.90
2018-07-17T21:05:29.355Z,99.90
2018-07-17T21:07:57.888Z,99.90
2018-07-17T21:10:27.358Z,99.90
2018-07-17T21:12:55.745Z,99.90
2018-07-17T21:15:24.123Z,99.90
2018-07-17T21:17:52.605Z,99.90
2018-07-17T21:20:21.113Z,99.90
2018-07-17T21:22:49.542Z,99.90
2018-07-17T21:25:17.898Z,99.90
2018-07-17T21:27:46.225Z,99.90
2018-07-17T21:30:14.609Z,99.90
2018-07-17T21:32:42.957Z,99.90
2018-07-17T21:35:11.242Z,99.90
2018-07-17T21:37:39.598Z,99.90
2018-07-17T21:40:08.010Z,99.90
2018-07-17T21:42:36.371Z,99.90
2018-07-17T21:45:04.805Z,99.90
2018-07-17T21:47:33.185Z,99.90
2018-07-17T21:50:01.521Z,99.90
2018-07-17T21:52:29.868Z,99.90
2018-07-17T21:54:58.166Z,99.90
2018-07-17T21:57:26.497Z,99.90
2018-07-17T21:59:54.866Z,99.90
2018-07-17T22:02:23.191Z,99.90
2018-07-17T22:05:01.032Z,99.90
2018-07-17T22:07:29.547Z,99.90
2018-07-17T22:09:57.888Z,99.90
2018-07-17T22:12:26.247Z,99.90
2018-07-17T22:14:54.518Z,99.90
2018-07-17T22:17:23.015Z,99.90
2018-07-17T22:19:51.414Z,99.90
2018-07-17T22:22:19.745Z,99.90
2018-07-17T22:24:48.125Z,99.90
2018-07-17T22:27:17.781Z,99.90
2018-07-17T22:29:46.740Z,99.90
2018-07-17T22:32:15.979Z,99.90
2018-07-17T22:34:45.491Z,99.90
2018-07-17T22:37:14.239Z,99.90
2018-07-17T22:39:42.867Z,99.90
2018-07-17T22:42:11.468Z,99.90
2018-07-17T22:44:40.095Z,99.90
2018-07-17T22:47:08.500Z,99.90
2018-07-17T22:49:37.069Z,98.60
2018-07-17T22:52:05.674Z,98.40
2018-07-17T22:54:34.150Z,98.10
2018-07-17T22:57:02.796Z,97.50
2018-07-17T22:59:31.418Z,97.40
2018-07-17T23:02:00.028Z,96.60
2018-07-17T23:04:28.421Z,97.20
2018-07-17T23:06:56.917Z,97.00
2018-07-17T23:09:25.649Z,97.20
2018-07-17T23:11:54.169Z,97.00
2018-07-17T23:14:22.777Z,97.20
2018-07-17T23:16:51.471Z,99.20
2018-07-17T23:19:20.166Z,99.60
2018-07-17T23:21:53.421Z,98.40
2018-07-17T23:24:22.076Z,99.90
2018-07-17T23:26:50.810Z,99.90
2018-07-17T23:29:19.666Z,99.90
2018-07-17T23:31:48.391Z,99.90
2018-07-17T23:34:17.139Z,99.90
2018-07-17T23:36:45.798Z,99.90
2018-07-17T23:39:14.394Z,99.90
2018-07-17T23:41:42.957Z,99.90
2018-07-17T23:44:11.648Z,99.90
2018-07-17T23:46:40.402Z,99.90
2018-07-17T23:49:12.977Z,99.90
2018-07-17T23:51:41.738Z,99.90
2018-07-17T23:54:14.563Z,99.90
2018-07-17T23:56:43.230Z,99.90
2018-07-17T23:59:11.857Z,99.90
